Nieuw Milligen, Netherlands
Current Conditions -  °F | °C
As of 6:55 AM on Thursday 23 Oct 2014 (Local Time) from EHDL Reporting Station
Haze Haze  
Wind Chill: 46°   Ceiling: 4500
Heat Index: 48°   Visibility: 2.6mi
Dew Point: 48°   Wind: 5mph
Humidity: 100%   Direction: 200°SSW
Pressure: 30.15"   Gusts: NA
Location:  52.22°N, 5.79°E
Report Text: EHDL 230455Z AUTO 20004KT 4300 BR OVC045 09/09 Q1021 GRN
Loading
Personal Weather Stations






























Interactive Weather Map
Tropical Storm Tracking
New forecast layout! Learn more

10-Day Weather Forecast

Advertisements
Track Severe Weather on mobile